Terminal Aerodrome Forecast
Issued by NWS Portland, OR

Home | Current Version | Previous Version | Text Only | Print | Product List | Glossary On
Versions: 1 2 3 4 5 6 7 8 9 10 11 12 13 14 15 16 17 18 19 20 21 22 23 24 25 26 27 28 29 30 31 32 33 34
000
FTUS46 KPQR 191759
TAFHIO
TAF
KHIO 191759Z 1918/2018 15005KT 6SM BR SCT009 OVC010
     FM192000 16007KT P6SM SCT015 BKN250
     FM200100 16010KT P6SM -SHRA SCT025 OVC040
     FM200500 17013G25KT 4SM RA BR BKN025 OVC035
     FM201000 18010KT 6SM -RA BR BKN015 OVC025
     FM201200 18007KT 5SM -RA BR BKN008 OVC015
     FM201500 18005KT 3SM BR VCSH BKN004 OVC008=

USA.gov is the U.S. government's official web portal to all federal, state and local government web resources and services.